Observations for SYDNEY INTL AIRPORT, Australia (YSSY)

YSSY 240900Z 16011KT 9999 SCT038 15/10 Q1031 INTER 0930/1200 4000 SHRA BKN015   
YSSY 240830Z 15011KT 9999 SCT035 15/09 Q1031 INTER 0930/1130 4000 SHRA BKN015   
YSSY 240800Z 16013KT 9999 VCSH FEW022 SCT035 15/10 Q1031 INTER 0900/1100 4000 SHRA BKN015   
YSSY 240730Z 15010KT 9999 -SHRA BKN025 15/10 Q1030 INTER 0830/1030 4000 SHRA BKN015 
YSSY 240700Z 16014KT 9999 FEW025 15/09 Q1030 INTER 0800/1000 4000 SHRA BKN015   
YSSY 240630Z 16014KT 9999 FEW030 15/09 Q1030 INTER 0630/0930 4000 SHRA BKN015   
YSSY 240600Z 16016KT 9999 VCSH FEW018 SCT030 BKN050 15/12 Q1030 INTER 0600/0900 4000 SHRA BKN015
YSSY 240530Z 20012KT 9999 -SHRA FEW018 SCT020 BKN040 14/12 Q1030 INTER 0530/0830 4000 SHRA BKN015   
YSSY 240500Z 20013KT 9999 -SHRA FEW016 SCT020 BKN040 14/12 Q1030 INTER 0500/0800 4000 SHRA BKN015   
YSSY 240430Z 19017KT 9999 -SHRA SCT020 BKN040 15/12 Q1030 INTER 0430/0730 4000 SHRA BKN015  
YSSY 240446Z 20016G26KT 9999 -SHRA SCT020 BKN045 15/12 Q1030
YSSY 240446Z 20016G26KT 9999 -SHRA SCT020 BKN045 15/12 Q1030 FM0500 19014KT 9999 -SHRA SCT025 INTER 0500/0746 4000 SHRA BKN015
YSSY 240400Z 19015KT 9999 VCSH SCT020 BKN040 15/12 Q1030 INTER 0430/0700 4000 SHRA BKN015   
YSSY 240330Z 19019KT 9999 VCSH SCT020 15/12 Q1030 INTER 0400/0630 4000 SHRA BKN015  
YSSY 240300Z 18020KT 9999 -SHRA SCT020 14/12 Q1030 INTER 0330/0600 4000 SHRA BKN015 
YSSY 240230Z 16019KT 9999 VCSH FEW025 16/12 Q1030 INTER 0300/0530 4000 SHRA BKN015  
YSSY 240200Z 19018KT 9999 VCSH FEW020 SCT040 15/13 Q1030 INTER 0230/0500 4000 SHRA BKN015   
YSSY 240130Z 17020KT 9999 -SHRA SCT025 SCT040 15/13 Q1030 INTER 0230/0430 4000 SHRA BKN015  
YSSY 240100Z 19018KT 9999 VCSH SCT030 BKN050 15/12 Q1031 INTER 0200/0400 4000 SHRA BKN015   
YSSY 240030Z 20016KT 9999 VCSH FEW018 BKN040 14/12 Q1031 RMK RF00.0/001.4 INTER 0030/0330 4000 SHRA BKN015 FM0030 MOD TURB BLW 5000FT TL 0200   
YSSY 240000Z 21011KT 9999 -SHRA FEW018 SCT025 BKN040 13/12 Q1031 INTER 0000/0300 4000 SHRA BKN015 FM0000 MOD TURB BLW 5000FT TL0200 
YSSY 240000Z 21011KT 9999 -SHRA FEW018 SCT025 BKN040 13/12 Q1031 RMK RF00.2/001.4 INTER 0000/0300 4000 SHRA BKN015 FM0000 MOD TURB BLW 5000FT TL 0200
YSSY 232330Z 20014KT 9999 -SHRA FEW012 SCT020 BKN030 13/12 Q1031 RMK RF00.0/000.0 INTER 2330/0230 4000 SHRA BKN015 FM2330 MOD TURB BLW 5000FT TL 0200   
YSSY 232300Z 20017KT 9999 -SHRA FEW018 SCT030 BKN040 13/12 Q1030 INTER 2300/0200 4000 SHRA BKN015 FM2300 MOD TURB BLW 5000FT
YSSY 232230Z 21018KT 9999 -SHRA FEW018 SCT025 BKN045 13/12 Q1030 INTER 2230/0130 4000 SHRA BKN015   
YSSY 232213Z 22014KT 8000 -SHRA FEW018 SCT025 BKN040 12/11 Q1030
YSSY 232213Z 22014KT 8000 -SHRA FEW018 SCT025 BKN040 12/11 Q1030 INTER 2215/0113 4000 SHRA BKN015
YSSY 232200Z 21013KT 6000 SHRA FEW018 SCT025 BKN040 12/11 Q1030 
YSSY 232200Z 21013KT 6000 SHRA FEW018 SCT025 BKN040 12/11 Q1030
YSSY 232200Z 21013KT 6000 SHRA FEW018 SCT025 BKN040 12/11 Q1030 FM2215 21015KT 9999 -SHRA SCT025 INTER 2215/0100 4000 SHRA BKN015
YSSY 232130Z 21016KT 9999 -SHRA FEW018 SCT025 BKN050 12/11 Q1030 INTER 2130/0030 4000 SHRA BKN015   
YSSY 232100Z 22011KT 9999 -SHRA FEW018 SCT030 BKN045 12/11 Q1029 INTER 2100/2400 4000 SHRA BKN015   
YSSY 232030Z 20013KT 9999 -SHRA FEW018 SCT025 BKN040 12/11 Q1029 INTER 2030/2330 4000 SHRA BKN015   
YSSY 232000Z 21014KT 8000 -SHRA FEW015 SCT025 BKN045 12/11 Q1029
YSSY 232000Z 21014KT 8000 -SHRA FEW015 SCT025 BKN045 12/11 Q1029
YSSY 232000Z 21014KT 8000 -SHRA FEW015 SCT025 BKN045 12/11 Q1029 INTER 2000/2300 4000 SHRA BKN015
YSSY 231930Z 22015KT 6000 SHRA FEW008 SCT025 BKN060 12/11 Q1029 FM1945 21015KT 9999 -SHRA SCT025 INTER 1945/2230 4000 SHRA BKN015   
YSSY 231930Z 22015KT 6000 SHRA FEW008 SCT025 BKN060 12/11 Q1029
YSSY 231930Z 22015KT 6000 SHRA FEW008 SCT025 BKN060 12/11 Q1029 FM1945 21015KT 9999 -SHRA SCT025 INTER 1945/2230 4000 SHRA BKN015
YSSY 231900Z 21018KT 9999 -SHRA FEW010 SCT022 BKN055 12/11 Q1028 INTER 1900/2200 4000 SHRA BKN015   
YSSY 231830Z 20014KT 9999 VCSH FEW012 SCT022 BKN035 12/11 Q1028 INTER 1830/2130 4000 SHRA BKN015
YSSY 231830Z 20014KT 9999 VCSH FEW012 SCT022 BKN035 12/11 Q1028
YSSY 231830Z 20014KT 9999 VCSH FEW012 SCT022 BKN035 12/11 Q1028 INTER 1830/21304000 SHRA BKN015
YSSY 231800Z 22011KT 9999 VCSH FEW008 BKN014 BKN045 12/11 Q1028 
YSSY 231800Z 22011KT 9999 VCSH FEW008 BKN014 BKN045 12/11 Q1028
YSSY 231800Z 22011KT 9999 VCSH FEW008 BKN014 BKN045 12/11 Q1028 FM1815 20015KT 9999 -SHRA SCT025 INTER 1815/2100 4000 SHRA BKN015
YSSY 231730Z 23016KT 9000 SHRA FEW015 SCT028 BKN045 12/10 Q1028 INTER 1730/2030 4000 SHRA SCT015
YSSY 231700Z 21016KT 9999 VCSH FEW015 SCT025 BKN045 12/11 Q1028 INTER 1700/2000 4000 SHRA SCT015
YSSY 231630Z 21018KT 9999 -SHRA SCT012 SCT025 BKN045 12/11 Q1028 INTER 1630/1930 4000 SHRA SCT015   
YSSY 231600Z 22016KT 9999 VCSH FEW008 SCT015 BKN035 11/10 Q1028 INTER 1600/1900 4000 SHRA SCT015
YSSY 231530Z 20015KT 7000 -SHRA FEW008 SCT014 BKN035 12/12 Q1028 FM1545 21015KT 9999 -SHRA SCT025 INTER 1545/1830 4000 SHRA SCT015  
YSSY 231500Z 23015KT 9999 -SHRA FEW008 SCT014 BKN030 11/10 Q1028
YSSY 231500Z 23015KT 9999 -SHRA FEW008 SCT014 BKN030 11/10 Q1028
YSSY 231500Z 23015KT 9999 -SHRA FEW008 SCT014 BKN030 11/10 Q1028 INTER 1500/1800 4000 SHRA SCT015
YSSY 231430Z 24013KT 9999 -SHRA FEW005 BKN013 BKN040 11/11 Q1028 FM1445 21015KT 9999 -SHRA SCT025 INTER 1445/1730 4000 SHRA SCT015  
YSSY 231430Z 24013KT 9999 -SHRA FEW005 BKN013 BKN040 11/11 Q1028
YSSY 231430Z 24013KT 9999 -SHRA FEW005 BKN013 BKN040 11/11 Q1028 FM1445 21015KT9999 -SHRA SCT025 INTER 1445/1730 4000 SHRA SCT015
YSSY 231415Z 26013KT 9000 -SHRA FEW005 BKN015 BKN030 11/10 Q1028
YSSY 231415Z 26013KT 9000 -SHRA FEW005 BKN015 BKN030 11/10 Q1028 INTER 1415/1715 4000 SHRA SCT015
YSSY 231400Z 27008KT 230V310 4000 SHRA FEW005 SCT012 BKN022 10/10 Q1028 
YSSY 231400Z 27008KT 230V310 4000 SHRA FEW005 SCT012 BKN022 10/10 Q1028
YSSY 231400Z 27008KT 230V310 4000 SHRA FEW005 SCT012 BKN022 10/10 Q1028 FM1415 21015KT 9999 -SHRA SCT025 INTER 1415/1700 4000 SHRA SCT015
YSSY 231330Z 21008KT 090V230 3000 +SHRA SCT008 BKN015 BKN060 11/10 Q1028 FM1345 21015KT 9999 -SHRA SCT025 INTER 1345/1630 4000 SHRA SCT015  
YSSY 231330Z 21008KT 090V230 3000 +SHRA SCT008 BKN015 BKN060 11/10 Q1028
YSSY 231330Z 21008KT 090V230 3000 +SHRA SCT008 BKN015 BKN060 11/10 Q1028 FM134521015KT 9999 -SHRA SCT025 INTER 1345/1630 4000 SHRA SCT015
YSSY 231300Z 33011KT 220V340 3000 +SHRA FEW008 SCT016 BKN025 11/10 Q1028
YSSY 231300Z 33011KT 220V340 3000 +SHRA FEW008 SCT016 BKN025 11/10 Q1028 FM131521015KT 9999 -SHRA SCT025 INTER 1315/1600 4000 SHRA SCT015
YSSY 231345Z 26007KT 6000 SHRA FEW005 SCT010 BKN022 11/10 Q1028
YSSY 231345Z 26007KT 6000 SHRA FEW005 SCT010 BKN022 11/10 Q1028 FM1400 21015KT 9999 -SHRA SCT025 INTER 1400/1645 4000 SHRA SCT015
YSSY 231300Z 33011KT 220V340 3000 +SHRA FEW008 SCT016 BKN025 11/10 Q1028
YSSY 231230Z 22018KT 5000 SHRA FEW012 SCT025 BKN035 11/10 Q1028 FM1245 21015KT 9999 -SHRA SCT025 INTER 1245/1530 4000 SHRA SCT015   
YSSY 231230Z 22018KT 5000 SHRA FEW012 SCT025 BKN035 11/10 Q1028
YSSY 231230Z 22018KT 5000 SHRA FEW012 SCT025 BKN035 11/10 Q1028 FM1245 21015KT 9999 -SHRA SCT025 INTER 1245/1530 4000 SHRA SCT015
YSSY 231215Z 22017KT 9000 -SHRA FEW015 SCT024 BKN040 11/10 Q1028
YSSY 231215Z 22017KT 9000 -SHRA FEW015 SCT024 BKN040 11/10 Q1028 INTER 1215/1515 4000 SHRA SCT015
YSSY 231200Z 21016KT 6000 SHRA FEW015 SCT030 BKN045 11/10 Q1027 
YSSY 231200Z 21016KT 6000 SHRA FEW015 SCT030 BKN045 11/10 Q1027
YSSY 231200Z 21016KT 6000 SHRA FEW015 SCT030 BKN045 11/10 Q1027 FM1215 21015KT 9999 -SHRA SCT025 INTER 1215/1500 4000 SHRA SCT015
YSSY 231130Z 21018G30KT 9999 VCSH FEW015 SCT042 BKN065 11/10 Q1027 INTER 1130/1430 4000 SHRA SCT015 
YSSY 231129Z 21018G30KT 9999 VCSH FEW015 SCT042 BKN065 11/10 Q1027
YSSY 231129Z 21018G30KT 9999 VCSH FEW015 SCT042 BKN065 11/10 Q1027 INTER 1129/1429 4000 SHRA SCT015
YSSY 231130Z 21018G30KT 9999 VCSH FEW015 SCT042 BKN065 11/10 Q1027
YSSY 231130Z 21018G30KT 9999 VCSH FEW015 SCT042 BKN065 11/10 Q1027 INTER 1130/1430 4000 SHRA SCT015
YSSY 231147Z 21018KT 5000 SHRA FEW012 SCT035 BKN045 11/10 Q1027
YSSY 231147Z 21018KT 5000 SHRA FEW012 SCT035 BKN045 11/10 Q1027 FM1200 21015KT 9999 -SHRA SCT025 INTER 1200/1442 4000 SHRA SCT015
YSSY 231100Z 20018KT 9999 -SHRA FEW012 SCT040 BKN065 12/10 Q1027 INTER 1100/1400 4000 SHRA SCT015   
YSSY 231030Z 21020KT 9999 -SHRA FEW015 SCT035 BKN070 12/10 Q1027 INTER 1030/1330 4000 SHRA SCT015   
YSSY 231000Z 20018KT 8000 SHRA FEW015 SCT035 BKN060 12/10 Q1027 INTER 1000/1300 4000 SHRA SCT015
YSSY 230930Z 21017KT 9999 -SHRA FEW015 SCT035 BKN065 12/09 Q1027 INTER 0930/1230 4000 SHRA SCT015   
YSSY 230900Z 21018KT 9999 VCSH FEW015 SCT030 BKN065 12/10 Q1026 INTER 0900/1200 4000 SHRA SCT015
YSSY 230830Z 22017KT 6000 SHRA FEW012 SCT045 BKN070 12/09 Q1026
YSSY 230830Z 22017KT 6000 SHRA FEW012 SCT045 BKN070 12/09 Q1026 FM0900 21015KT 9999 -SHRA SCT025 INTER 0900/1130 4000 SHRA SCT015
YSSY 230840Z 22017KT 9999 -SHRA FEW015 SCT038 BKN070 12/09 Q1026
YSSY 230830Z 22017KT 6000 SHRA FEW012 SCT045 BKN070 12/09 Q1026 FM0900 21015KT 9999 -SHRA SCT025 INTER 0900/1130 4000 SHRA SCT015